Airfield :
LOGIN :

Register | Disclaimer

   EN    FR    IT 

 










Legend :    VFR   Marginal VFR   IFR   Intensive IFR   Very Intensive IFR
Visi :
Ceiling :
>= 8 km
>= 3000ft
5 to 8 km
1000 to 3000 ft
1500m to 5 km
500 to 1000 ft
800 to 1500m
200 to 500 ft
< 800m
< 200 ft
Symbols :   Thunderstorms  Fog  Heavy snow  Heavy precipitations  Wind > 20 kt
SIGMETs :     Misc.  Thunderstorms  Icing  Turbulence  Mountain Waves  Volcanic Ashes






- Airport Elevation : 1339 ft


ETHN - Niederstetten

CURRENT METAR :
  • 141820Z 11012KT 9999 BKN200 03/01 Q1001 BLU+

EXPIRED METARs :
  • 141720Z 11011KT 9999 OVC200 03/01 Q1001 BLU+
  • 141620Z 10007KT 9999 OVC180 02/00 Q1001 BLU FCST CANCEL
  • 141520Z 10007KT 9999 FEW110 BKN180 04/00 Q1001 BLU BLU

TAF AMD TAF ETHN
Valid from the 14 at 15:00 until the 15 at 00:00 UTC


141554Z 1415/1424 11010G20KT 9999 NSW FEW090 BKN210 CANCEL 1600



MET'MAP, your aeronautical weather chart ! - Copyright ORBIFLY December 2007 - Disclaimer

ORBIFLY MET'MAP TEAM :

Programming & Development : Alexandra Zaïnal
Concept & Development : Baudouin d'Aumeries
Co-Development & Prog : Marc-Olivier Méhu
Technical & hardware support : Manuel Goepfert

Contact : metmap@orbifly.com




SOURCES & CREDITS :

   NOAA